Time;durP1;ratioP1;P1;durP2;ratioP2;P2;SDS_P1;SDS_P2;PMS_P1;PMS_P2;Temp;Humidity;BMP_temperature;BMP_pressure;BME280_temperature;BME280_humidity;BME280_pressure;Samples;Min_cycle;Max_cycle;Signal;HPM_P1;HPM_P2
2022/05/31 00:00:37;;;;;;;6.93;3.67;;;;;;;20.03;73.41;98104.38;5030754;28;20189;-61
2022/05/31 00:03:04;;;;;;;6.60;3.78;;;;;;;20.11;72.01;98123.56;5029673;28;20190;-61
2022/05/31 00:05:31;;;;;;;4.97;4.05;;;;;;;20.15;72.15;98118.78;5034770;28;20185;-60
2022/05/31 00:07:56;;;;;;;7.07;3.53;;;;;;;20.09;72.05;98114.22;5036286;28;20201;-60
2022/05/31 00:10:22;;;;;;;6.35;4.03;;;;;;;20.08;72.35;98133.63;5035068;28;20897;-60
2022/05/31 00:12:48;;;;;;;5.70;3.65;;;;;;;20.30;70.83;98132.84;5037122;28;20188;-60
2022/05/31 00:15:16;;;;;;;5.82;3.80;;;;;;;20.49;69.98;98137.66;5041314;28;20242;-61
2022/05/31 00:17:42;;;;;;;6.00;4.20;;;;;;;20.33;71.84;98125.44;5045970;28;20634;-62
2022/05/31 00:20:10;;;;;;;8.10;3.90;;;;;;;20.47;71.86;98137.03;5036841;28;20237;-60
2022/05/31 00:22:38;;;;;;;4.97;3.45;;;;;;;20.52;72.25;98147.84;5037405;28;20186;-61
2022/05/31 00:25:05;;;;;;;3.75;3.45;;;;;;;20.49;72.91;98140.28;5033957;28;20556;-60
2022/05/31 00:27:31;;;;;;;5.10;3.60;;;;;;;20.45;72.95;98149.53;5031709;28;20262;-60
2022/05/31 00:29:56;;;;;;;6.45;4.22;;;;;;;20.41;73.02;98143.78;5036674;28;20673;-61
2022/05/31 00:32:27;;;;;;;5.72;3.33;;;;;;;20.38;72.95;98114.41;5039326;28;20177;-61
2022/05/31 00:34:55;;;;;;;4.55;3.65;;;;;;;20.42;74.38;98148.06;5041734;28;20188;-60
2022/05/31 00:37:22;;;;;;;8.70;4.32;;;;;;;20.51;73.67;98147.03;5042673;28;21138;-60
2022/05/31 00:39:47;;;;;;;6.82;4.20;;;;;;;20.55;73.66;98147.50;5043673;28;20208;-60
2022/05/31 00:42:17;;;;;;;5.40;3.95;;;;;;;20.49;74.13;98156.91;5039902;28;20217;-61
2022/05/31 00:44:43;;;;;;;5.28;3.60;;;;;;;20.31;75.85;98164.22;5036792;28;20264;-61
2022/05/31 00:47:14;;;;;;;3.75;3.45;;;;;;;20.09;77.05;98164.13;5043177;28;20284;-60
2022/05/31 00:49:46;;;;;;;5.97;3.97;;;;;;;20.24;76.77;98175.59;5035839;28;20228;-60
2022/05/31 00:52:23;;;;;;;4.47;4.03;;;;;;;20.05;77.86;98175.97;5018806;28;20212;-60
2022/05/31 00:55:01;;;;;;;4.68;4.07;;;;;;;20.10;77.96;98179.75;5020284;28;20185;-60
2022/05/31 00:57:27;;;;;;;5.78;4.05;;;;;;;20.24;77.75;98176.41;5029278;28;20714;-60
2022/05/31 00:59:56;;;;;;;7.55;4.10;;;;;;;20.07;79.60;98174.00;5040457;28;20178;-60
2022/05/31 01:02:24;;;;;;;11.32;4.45;;;;;;;20.02;79.57;98171.88;5044760;28;20188;-61
2022/05/31 01:04:51;;;;;;;7.80;4.40;;;;;;;20.16;75.63;98175.63;5035841;28;20181;-60
2022/05/31 01:07:17;;;;;;;4.43;3.53;;;;;;;20.19;75.18;98170.84;5038057;28;20216;-60
2022/05/31 01:09:43;;;;;;;6.40;3.70;;;;;;;19.93;75.03;98167.63;5038233;28;20177;-60
2022/05/31 01:12:09;;;;;;;5.65;4.03;;;;;;;20.13;74.40;98175.97;5027782;28;20193;-60
2022/05/31 01:14:38;;;;;;;5.75;3.58;;;;;;;20.16;75.94;98179.06;5019376;28;20609;-60
2022/05/31 01:17:09;;;;;;;9.25;3.97;;;;;;;20.15;78.15;98172.19;5022037;28;20678;-60
2022/05/31 01:22:19;;;;;;;6.60;3.80;;;;;;;20.13;78.07;98166.28;5036924;28;20176;-60
2022/05/31 01:24:56;;;;;;;3.72;3.42;;;;;;;20.17;78.83;98178.06;5037386;28;20185;-60
2022/05/31 01:27:35;;;;;;;6.60;4.38;;;;;;;20.32;75.75;98172.91;5040020;28;20197;-60
2022/05/31 01:30:05;;;;;;;8.07;4.40;;;;;;;20.23;76.49;98173.97;5051978;28;20216;-60
2022/05/31 01:32:33;;;;;;;7.15;3.83;;;;;;;20.35;73.56;98164.69;5032299;28;20192;-60
2022/05/31 01:35:14;;;;;;;4.07;3.67;;;;;;;20.28;73.66;98156.66;5037978;28;20185;-61
2022/05/31 01:37:43;;;;;;;6.30;4.20;;;;;;;20.36;73.62;98166.34;5039990;28;20176;-60
2022/05/31 01:40:16;;;;;;;8.43;4.47;;;;;;;20.39;72.56;98166.81;5040011;28;20212;-60
2022/05/31 01:42:46;;;;;;;4.13;3.70;;;;;;;20.28;72.45;98163.75;5030718;28;20177;-60
2022/05/31 01:45:31;;;;;;;8.77;4.57;;;;;;;19.98;74.37;98165.31;5031360;28;20177;-60
2022/05/31 01:48:00;;;;;;;5.40;4.05;;;;;;;20.02;74.62;98166.63;5042460;28;20706;-60
2022/05/31 01:50:26;;;;;;;7.15;3.58;;;;;;;19.95;75.81;98170.09;5036893;28;20191;-60
2022/05/31 01:52:52;;;;;;;4.95;4.47;;;;;;;19.88;75.45;98161.25;5039478;28;20177;-60
2022/05/31 01:55:19;;;;;;;8.52;4.10;;;;;;;19.87;75.77;98172.75;5017496;28;20196;-60
2022/05/31 01:57:48;;;;;;;7.50;4.07;;;;;;;19.96;76.70;98177.81;5018899;28;20309;-60
2022/05/31 02:00:16;;;;;;;7.20;4.53;;;;;;;19.88;78.56;98172.56;5029328;28;20193;-61
2022/05/31 02:02:47;;;;;;;9.27;4.40;;;;;;;19.72;80.59;98159.50;5035095;28;20573;-61
2022/05/31 02:05:13;;;;;;;6.53;4.38;;;;;;;19.62;81.81;98179.00;5036293;28;20228;-60
2022/05/31 02:07:39;;;;;;;10.15;4.40;;;;;;;19.72;81.87;98171.78;5039360;28;20247;-60
2022/05/31 02:10:05;;;;;;;5.88;3.97;;;;;;;19.64;80.78;98172.63;5034383;28;20190;-60
2022/05/31 02:12:31;;;;;;;9.23;4.60;;;;;;;19.63;82.64;98178.03;5038239;28;20213;-60
2022/05/31 02:14:57;;;;;;;6.43;4.00;;;;;;;19.78;79.53;98186.88;5026415;28;20749;-62
2022/05/31 02:17:23;;;;;;;7.07;4.53;;;;;;;19.72;77.02;98179.66;5018131;28;20197;-60
2022/05/31 02:19:49;;;;;;;7.40;4.00;;;;;;;19.69;77.11;98201.00;5019988;28;20198;-60
2022/05/31 02:22:18;;;;;;;6.78;4.40;;;;;;;19.65;77.82;98199.69;5039770;28;20730;-60
2022/05/31 02:24:44;;;;;;;4.75;4.10;;;;;;;19.60;78.01;98196.75;5041173;28;20212;-60
2022/05/31 02:27:11;;;;;;;5.78;3.65;;;;;;;19.64;78.45;98211.19;5042611;28;20233;-60
2022/05/31 02:29:38;;;;;;;6.60;3.90;;;;;;;19.75;78.53;98216.91;5040797;28;20196;-61
2022/05/31 02:32:07;;;;;;;6.45;4.25;;;;;;;19.79;78.21;98220.00;5037137;28;20192;-61
2022/05/31 02:34:36;;;;;;;10.07;4.13;;;;;;;19.74;78.85;98214.44;5030382;28;20200;-60
2022/05/31 02:37:03;;;;;;;5.60;3.53;;;;;;;19.80;78.55;98225.09;5034989;28;20192;-60
2022/05/31 02:39:29;;;;;;;8.65;3.63;;;;;;;19.80;78.25;98224.28;5038083;28;20205;-60
2022/05/31 02:41:55;;;;;;;7.00;3.80;;;;;;;19.74;77.50;98219.69;5040543;28;20185;-60
2022/05/31 02:44:21;;;;;;;7.97;4.57;;;;;;;19.65;77.64;98225.94;5036023;28;20195;-60
2022/05/31 02:46:47;;;;;;;6.82;4.15;;;;;;;19.67;78.64;98227.44;5040371;28;20189;-60
2022/05/31 02:49:12;;;;;;;7.55;4.07;;;;;;;19.44;78.93;98225.63;5027603;28;20224;-60
2022/05/31 02:51:41;;;;;;;6.20;4.03;;;;;;;19.44;79.50;98223.00;5033618;28;20196;-60
2022/05/31 02:54:08;;;;;;;11.10;4.05;;;;;;;19.50;80.07;98227.59;5038540;28;20299;-60
2022/05/31 02:56:33;;;;;;;6.97;4.53;;;;;;;19.34;81.03;98232.84;5036374;28;20186;-60
2022/05/31 02:58:59;;;;;;;9.30;4.50;;;;;;;19.13;81.18;98214.13;5036636;28;20902;-60
2022/05/31 03:01:28;;;;;;;5.50;4.25;;;;;;;19.18;81.09;98222.31;5038011;28;20181;-61
2022/05/31 03:03:53;;;;;;;8.73;4.65;;;;;;;19.07;81.98;98226.06;5030923;28;20512;-60
2022/05/31 03:06:21;;;;;;;8.07;4.80;;;;;;;19.09;82.36;98229.38;5044543;28;20581;-61
2022/05/31 03:08:48;;;;;;;8.25;3.88;;;;;;;19.18;82.29;98235.44;5036577;28;20205;-61
2022/05/31 03:11:31;;;;;;;6.50;4.13;;;;;;;19.28;81.91;98226.44;5034407;28;20177;-60
2022/05/31 03:14:07;;;;;;;9.02;4.15;;;;;;;19.20;82.33;98236.91;5040250;28;20181;-60
2022/05/31 03:16:33;;;;;;;7.00;4.68;;;;;;;19.32;82.01;98247.94;5029556;28;20174;-60
2022/05/31 03:19:03;;;;;;;8.60;4.32;;;;;;;19.33;80.34;98220.72;5036885;28;20185;-60
2022/05/31 03:21:50;;;;;;;7.13;4.28;;;;;;;19.29;80.58;98233.34;5036845;28;20189;-60
2022/05/31 03:24:24;;;;;;;6.07;4.70;;;;;;;19.31;81.38;98248.91;5039108;28;20269;-60
2022/05/31 03:26:53;;;;;;;7.18;4.22;;;;;;;19.38;81.01;98245.50;5031995;28;20612;-60
2022/05/31 03:29:19;;;;;;;6.78;4.25;;;;;;;19.31;80.85;98243.66;5033645;28;20185;-60
2022/05/31 03:31:45;;;;;;;9.40;4.25;;;;;;;19.36;80.39;98241.38;5035500;28;20192;-60
2022/05/31 03:34:10;;;;;;;9.05;4.22;;;;;;;19.39;79.55;98248.91;5033213;28;20208;-60
2022/05/31 03:36:36;;;;;;;8.07;4.35;;;;;;;19.48;79.58;98242.69;5045022;28;20681;-60
2022/05/31 03:39:02;;;;;;;7.65;4.28;;;;;;;19.57;79.28;98249.56;5037883;28;20212;-60
2022/05/31 03:41:27;;;;;;;8.32;4.03;;;;;;;19.57;79.12;98260.06;5035970;28;20181;-61
2022/05/31 03:43:53;;;;;;;6.80;4.75;;;;;;;19.43;79.66;98248.44;5038037;28;20185;-61
2022/05/31 03:46:19;;;;;;;6.47;4.22;;;;;;;19.49;79.37;98260.91;5038874;28;20188;-61
2022/05/31 03:48:44;;;;;;;7.50;4.20;;;;;;;19.59;79.22;98258.91;5031801;28;20206;-61
2022/05/31 03:51:12;;;;;;;5.28;3.78;;;;;;;19.60;79.32;98262.38;5038193;28;20189;-61
2022/05/31 03:53:38;;;;;;;8.43;4.32;;;;;;;19.75;78.86;98268.63;5035346;28;20176;-61
2022/05/31 03:56:06;;;;;;;4.85;4.30;;;;;;;19.82;78.61;98280.09;5043231;28;20295;-60
2022/05/31 03:58:33;;;;;;;6.47;4.00;;;;;;;19.83;78.08;98260.72;5039590;28;20292;-60
2022/05/31 04:00:59;;;;;;;6.75;3.78;;;;;;;20.07;77.05;98276.47;5018248;28;20185;-60
2022/05/31 04:03:25;;;;;;;8.50;3.97;;;;;;;20.04;76.37;98268.91;5016422;28;20234;-61
2022/05/31 04:05:51;;;;;;;7.28;4.07;;;;;;;19.89;78.35;98275.81;5026775;28;20192;-60
2022/05/31 04:08:19;;;;;;;8.65;4.28;;;;;;;19.89;79.29;98276.63;5048420;28;20215;-60
2022/05/31 04:10:45;;;;;;;5.15;4.20;;;;;;;19.99;78.50;98281.72;5033510;28;20193;-60
2022/05/31 04:13:12;;;;;;;5.93;3.80;;;;;;;20.14;77.16;98280.88;5046951;28;20191;-60
2022/05/31 04:15:37;;;;;;;7.25;3.67;;;;;;;20.06;76.76;98282.69;5037712;28;20185;-60
2022/05/31 04:18:04;;;;;;;8.32;4.57;;;;;;;20.11;76.57;98283.03;5037487;28;20823;-60
2022/05/31 04:20:30;;;;;;;10.90;5.25;;;;;;;19.95;77.58;98273.34;5038943;28;20189;-60
2022/05/31 04:23:57;;;;;;;9.77;4.90;;;;;;;19.80;77.64;98240.03;5019246;28;20814;-60
2022/05/31 04:25:41;;;;;;;16.08;5.18;;;;;;;19.77;78.55;98277.13;5021301;28;20247;-60
2022/05/31 04:28:07;;;;;;;6.82;4.53;;;;;;;19.50;80.71;98259.91;5040500;28;20220;-60
2022/05/31 04:30:32;;;;;;;4.97;4.47;;;;;;;19.68;80.75;98278.09;5037926;28;21021;-60
2022/05/31 04:32:57;;;;;;;10.15;4.30;;;;;;;19.72;80.98;98280.25;5041736;28;20196;-60
2022/05/31 04:35:23;;;;;;;6.70;4.05;;;;;;;19.79;80.54;98286.50;5038732;28;20627;-60
2022/05/31 04:37:48;;;;;;;7.20;4.70;;;;;;;19.80;79.82;98282.03;5041811;28;20194;-60
2022/05/31 04:40:14;;;;;;;5.65;4.25;;;;;;;19.80;80.08;98284.66;5034994;28;20658;-61
2022/05/31 04:42:41;;;;;;;9.50;5.13;;;;;;;19.97;78.90;98289.75;5026031;28;20186;-60
2022/05/31 04:45:08;;;;;;;5.65;3.80;;;;;;;20.03;79.26;98293.50;5019891;28;20193;-60
2022/05/31 04:47:34;;;;;;;7.10;4.63;;;;;;;20.15;78.49;98289.56;5023988;28;20210;-60
2022/05/31 04:50:00;;;;;;;7.50;4.45;;;;;;;20.36;77.79;98295.13;5041434;28;20194;-60
2022/05/31 04:52:25;;;;;;;7.25;4.07;;;;;;;20.46;76.99;98293.13;5040741;28;20215;-60
2022/05/31 04:54:50;;;;;;;8.30;4.07;;;;;;;20.63;75.57;98286.81;5036840;28;20280;-60
2022/05/31 04:57:16;;;;;;;5.70;4.25;;;;;;;20.69;75.95;98292.19;5031301;28;20273;-60
2022/05/31 04:59:41;;;;;;;4.72;4.05;;;;;;;20.74;76.15;98294.31;5032816;28;20280;-60
2022/05/31 05:02:07;;;;;;;7.90;4.45;;;;;;;20.85;74.64;98296.56;5031117;28;20247;-60
2022/05/31 05:04:33;;;;;;;7.15;4.70;;;;;;;20.89;74.18;98293.47;5019415;28;20670;-60
2022/05/31 05:06:59;;;;;;;6.85;3.92;;;;;;;20.88;74.46;98296.22;5018776;28;20181;-60
2022/05/31 05:09:24;;;;;;;6.50;4.35;;;;;;;20.90;75.28;98299.53;5028580;28;20217;-60
2022/05/31 05:11:50;;;;;;;5.60;3.90;;;;;;;20.94;74.90;98295.56;5039249;28;20239;-62
2022/05/31 05:14:15;;;;;;;6.40;4.18;;;;;;;21.12;74.04;98298.75;5040715;28;20676;-60
2022/05/31 05:16:41;;;;;;;8.02;3.80;;;;;;;20.92;74.36;98305.44;5034879;28;20647;-60
2022/05/31 05:19:07;;;;;;;8.60;4.20;;;;;;;21.03;74.25;98299.81;5036040;28;20186;-60
2022/05/31 05:21:32;;;;;;;6.93;4.70;;;;;;;21.15;74.10;98304.47;5035107;28;20192;-60
2022/05/31 05:23:58;;;;;;;6.80;4.65;;;;;;;21.22;73.20;98305.41;5040296;28;20652;-60
2022/05/31 05:26:23;;;;;;;5.90;4.35;;;;;;;21.12;73.96;98299.59;5035653;28;20196;-60
2022/05/31 05:31:35;;;;;;;7.35;4.20;;;;;;;21.35;73.45;98302.22;5038600;28;20185;-61
2022/05/31 05:34:02;;;;;;;5.57;4.28;;;;;;;21.48;73.08;98315.63;5036145;28;20372;-61
2022/05/31 05:36:29;;;;;;;7.13;4.03;;;;;;;21.62;72.31;98302.50;5031844;28;20190;-61
2022/05/31 05:38:55;;;;;;;9.18;4.20;;;;;;;21.81;71.53;98309.16;5029902;28;20182;-62
2022/05/31 05:41:22;;;;;;;12.15;4.30;;;;;;;21.95;70.31;98308.34;5044377;28;20686;-61
2022/05/31 05:43:48;;;;;;;4.82;4.22;;;;;;;22.01;70.15;98302.38;5038734;28;20234;-61
2022/05/31 05:46:19;;;;;;;9.25;4.43;;;;;;;22.12;69.72;98309.84;5038681;28;20189;-61
2022/05/31 05:48:45;;;;;;;6.05;3.97;;;;;;;22.10;69.08;98302.13;5037645;28;20263;-61
2022/05/31 05:51:20;;;;;;;7.95;4.47;;;;;;;22.22;69.47;98303.34;5041241;28;20185;-61
2022/05/31 05:53:46;;;;;;;8.68;3.80;;;;;;;22.39;68.58;98312.72;5037763;28;20181;-61
2022/05/31 05:56:12;;;;;;;6.03;3.85;;;;;;;22.51;67.32;98315.72;5035091;28;20201;-60
2022/05/31 05:58:39;;;;;;;6.68;4.18;;;;;;;22.63;67.19;98314.28;4998244;28;1292361;-61
2022/05/31 06:01:09;;;;;;;8.05;4.03;;;;;;;22.78;66.87;98307.97;5037484;28;20616;-61
2022/05/31 06:03:46;;;;;;;6.32;4.10;;;;;;;22.87;66.23;98316.63;5039326;28;20185;-61
2022/05/31 06:06:14;;;;;;;7.18;4.80;;;;;;;22.98;66.59;98316.16;5038853;28;20579;-61
2022/05/31 06:08:53;;;;;;;7.15;4.18;;;;;;;23.04;65.98;98310.97;5037234;28;20204;-61
2022/05/31 06:11:25;;;;;;;4.47;3.83;;;;;;;23.15;65.78;98318.41;5039686;28;20184;-60
2022/05/31 06:14:02;;;;;;;6.70;4.30;;;;;;;23.25;65.36;98316.28;5041733;28;20181;-61
2022/05/31 06:16:31;;;;;;;7.63;3.78;;;;;;;23.32;63.98;98305.81;5043405;28;20553;-61
2022/05/31 06:19:18;;;;;;;5.53;3.75;;;;;;;23.39;64.84;98307.50;5037641;28;20651;-61
2022/05/31 06:21:46;;;;;;;7.32;3.90;;;;;;;23.52;65.19;98309.44;5035621;28;20279;-62
2022/05/31 06:24:12;;;;;;;7.13;4.18;;;;;;;23.58;64.96;98316.63;5034824;28;20751;-61
2022/05/31 06:26:39;;;;;;;8.38;4.50;;;;;;;23.60;65.50;98304.06;5036978;28;20276;-61
2022/05/31 06:29:05;;;;;;;4.65;4.00;;;;;;;23.72;65.63;98308.63;5016920;28;20206;-61
2022/05/31 06:31:31;;;;;;;6.95;4.70;;;;;;;23.82;65.02;98303.84;5018968;28;20220;-61
2022/05/31 06:33:56;;;;;;;7.20;4.13;;;;;;;24.00;64.98;98306.88;5026973;28;20213;-61
2022/05/31 06:36:21;;;;;;;5.75;3.67;;;;;;;23.94;64.17;98312.91;5038073;28;20177;-61
2022/05/31 06:38:47;;;;;;;8.93;5.25;;;;;;;24.13;64.76;98308.81;5034362;28;20181;-61
2022/05/31 06:41:13;;;;;;;13.13;5.45;;;;;;;24.29;65.06;98315.44;5041141;28;20197;-61
2022/05/31 06:43:39;;;;;;;13.48;5.28;;;;;;;24.51;64.89;98311.72;5041734;28;20189;-60
2022/05/31 06:46:06;;;;;;;10.77;5.07;;;;;;;24.67;64.16;98306.13;5037705;28;20255;-61
2022/05/31 06:48:32;;;;;;;11.85;5.05;;;;;;;24.80;63.33;98310.66;5031816;28;20293;-60
2022/05/31 06:51:02;;;;;;;10.02;4.75;;;;;;;24.94;61.51;98310.53;5017345;28;20178;-61
2022/05/31 06:58:55;;;;;;;16.50;5.32;;;;;;;25.05;62.33;98302.03;5034871;28;20248;-60
2022/05/31 07:01:22;;;;;;;11.73;4.80;;;;;;;25.14;62.39;98308.75;5037061;28;20197;-60
2022/05/31 07:03:48;;;;;;;11.30;4.90;;;;;;;25.23;62.13;98312.88;5044811;28;20705;-60
2022/05/31 07:06:13;;;;;;;14.32;5.20;;;;;;;25.34;60.88;98312.31;5039137;28;20330;-60
2022/05/31 07:08:39;;;;;;;9.07;5.25;;;;;;;25.43;60.02;98311.09;5036821;28;20212;-61
2022/05/31 07:11:06;;;;;;;12.55;5.20;;;;;;;25.48;59.64;98303.38;5016200;28;20202;-60
2022/05/31 07:13:32;;;;;;;11.20;4.85;;;;;;;25.55;60.44;98317.44;5017919;28;20178;-61
2022/05/31 07:16:01;;;;;;;12.55;5.22;;;;;;;25.58;60.03;98309.09;5031114;28;20185;-60
2022/05/31 07:18:27;;;;;;;7.10;4.93;;;;;;;25.48;61.02;98306.03;5039363;28;20686;-61
2022/05/31 07:20:52;;;;;;;11.52;5.72;;;;;;;25.49;60.72;98320.91;5037168;28;20182;-61
2022/05/31 07:23:18;;;;;;;12.38;6.07;;;;;;;25.41;60.75;98301.72;5044805;28;20216;-62
2022/05/31 07:25:43;;;;;;;11.15;5.97;;;;;;;25.49;60.36;98302.34;5034758;28;20218;-61
2022/05/31 07:28:09;;;;;;;10.63;5.38;;;;;;;25.43;60.85;98300.50;5040963;28;20197;-60
2022/05/31 07:30:34;;;;;;;11.88;5.70;;;;;;;25.52;60.83;98306.44;5030177;28;20868;-60
2022/05/31 07:33:00;;;;;;;10.07;5.45;;;;;;;25.64;60.52;98307.47;5016373;28;20178;-61
2022/05/31 07:35:25;;;;;;;11.95;5.35;;;;;;;25.73;60.37;98304.41;5018404;28;20188;-60
2022/05/31 07:37:51;;;;;;;13.48;6.03;;;;;;;25.82;60.77;98308.50;5032335;28;20257;-60
2022/05/31 07:40:16;;;;;;;12.13;5.75;;;;;;;25.79;60.72;98297.50;5036967;28;20216;-60
2022/05/31 07:42:42;;;;;;;9.38;5.38;;;;;;;25.84;60.54;98297.72;5038793;28;20184;-60
2022/05/31 07:45:08;;;;;;;10.65;5.80;;;;;;;25.73;59.96;98309.72;5035963;28;20181;-60
2022/05/31 07:47:33;;;;;;;11.05;5.43;;;;;;;25.78;59.63;98299.31;5042672;28;20232;-60
2022/05/31 07:49:59;;;;;;;10.30;7.55;;;;;;;25.93;59.69;98305.28;5040939;28;20211;-60
2022/05/31 07:52:24;;;;;;;10.23;6.47;;;;;;;26.07;60.04;98306.91;5023499;28;20264;-60
2022/05/31 07:54:50;;;;;;;15.73;6.25;;;;;;;26.00;59.80;98302.66;5016715;28;20173;-60
2022/05/31 08:00:01;;;;;;;10.85;6.13;;;;;;;25.95;59.14;98297.94;5034013;28;20212;-60
2022/05/31 08:02:26;;;;;;;10.25;5.47;;;;;;;26.04;59.08;98302.03;5040238;28;20189;-60
2022/05/31 08:04:51;;;;;;;12.30;6.00;;;;;;;26.16;58.52;98300.38;5039008;28;20187;-60
2022/05/31 08:07:17;;;;;;;10.88;5.80;;;;;;;26.12;58.63;98301.81;5036995;28;20189;-61
2022/05/31 08:09:43;;;;;;;11.27;6.00;;;;;;;26.26;58.36;98292.81;5041418;28;20284;-60
2022/05/31 08:12:10;;;;;;;11.38;4.85;;;;;;;26.39;58.08;98298.09;5037812;28;20179;-60
2022/05/31 08:14:35;;;;;;;8.00;5.38;;;;;;;26.55;57.58;98299.53;5035470;28;20185;-60
2022/05/31 08:17:03;;;;;;;7.95;5.78;;;;;;;26.58;56.87;98294.63;5037317;28;20334;-60
2022/05/31 08:19:29;;;;;;;6.40;5.63;;;;;;;26.65;56.35;98291.94;5038968;28;20281;-61
2022/05/31 08:21:56;;;;;;;11.35;6.40;;;;;;;26.68;56.36;98287.03;5040254;28;20255;-60
2022/05/31 08:24:22;;;;;;;8.63;5.30;;;;;;;26.72;56.37;98284.78;5041638;28;20181;-60
2022/05/31 08:26:48;;;;;;;10.40;5.45;;;;;;;26.84;56.77;98288.41;5033354;28;20633;-60
2022/05/31 08:29:14;;;;;;;7.72;5.57;;;;;;;26.90;57.43;98284.91;5037250;28;20193;-60
2022/05/31 08:31:40;;;;;;;10.93;5.82;;;;;;;27.00;56.97;98288.72;5036135;28;20185;-60
2022/05/31 08:34:07;;;;;;;9.73;5.88;;;;;;;26.93;57.07;98282.63;5021683;28;20252;-61
2022/05/31 08:36:32;;;;;;;18.58;6.40;;;;;;;26.78;57.22;98286.59;5016325;28;20173;-60
2022/05/31 08:38:58;;;;;;;12.05;6.18;;;;;;;26.72;57.64;98282.94;5019376;28;20220;-60
2022/05/31 08:41:33;;;;;;;10.85;5.57;;;;;;;26.85;58.41;98282.06;5038590;28;20192;-60
2022/05/31 08:44:05;;;;;;;11.07;6.05;;;;;;;26.98;57.63;98285.47;5037221;28;20165;-60
2022/05/31 08:46:32;;;;;;;10.23;5.57;;;;;;;26.90;57.67;98280.41;5042740;28;20255;-60
2022/05/31 08:48:59;;;;;;;8.95;5.22;;;;;;;26.96;57.58;98274.25;5038268;28;20197;-61
2022/05/31 08:51:55;;;;;;;13.25;5.63;;;;;;;27.13;57.04;98271.91;5038915;28;20205;-60
2022/05/31 08:57:30;;;;;;;8.55;5.03;;;;;;;27.34;57.36;98285.72;5039198;28;20290;-60
2022/05/31 09:00:04;;;;;;;10.68;5.07;;;;;;;27.39;57.38;98282.41;5031961;28;20247;-61
2022/05/31 09:02:41;;;;;;;15.95;5.07;;;;;;;27.10;56.02;98280.31;5032751;28;20207;-61
2022/05/31 09:05:14;;;;;;;8.88;4.82;;;;;;;27.12;57.53;98279.06;5038192;28;20212;-60
2022/05/31 09:07:50;;;;;;;7.70;4.80;;;;;;;27.23;57.23;98280.28;5037284;28;20738;-60
2022/05/31 09:10:40;;;;;;;10.77;5.65;;;;;;;27.32;57.55;98276.34;5041145;28;20185;-61
2022/05/31 09:13:15;;;;;;;10.68;5.53;;;;;;;27.48;56.71;98273.16;5035441;28;20690;-61
2022/05/31 09:15:57;;;;;;;8.63;5.72;;;;;;;27.52;56.51;98269.06;5028047;28;20179;-60
2022/05/31 09:18:38;;;;;;;5.45;4.63;;;;;;;27.62;56.79;98283.50;5019512;28;20170;-61
2022/05/31 09:21:08;;;;;;;11.32;4.78;;;;;;;27.59;56.67;98278.59;5023249;28;20207;-60
2022/05/31 09:23:38;;;;;;;8.15;4.78;;;;;;;27.70;56.95;98280.56;5042968;28;20174;-61
2022/05/31 09:26:09;;;;;;;11.35;4.75;;;;;;;27.82;57.30;98273.53;5042365;28;20247;-61
2022/05/31 09:28:47;;;;;;;9.75;4.95;;;;;;;28.00;56.22;98272.78;5045099;28;20189;-61
2022/05/31 09:31:38;;;;;;;8.98;5.15;;;;;;;28.08;56.03;98262.69;5043377;28;20228;-60
2022/05/31 09:34:22;;;;;;;9.48;4.63;;;;;;;28.16;55.09;98257.06;5038507;28;20201;-61
2022/05/31 09:37:05;;;;;;;10.27;4.90;;;;;;;28.30;54.91;98257.75;5027209;28;20190;-62
2022/05/31 09:39:48;;;;;;;8.93;4.82;;;;;;;28.32;55.64;98267.16;5019094;28;20177;-61
2022/05/31 09:42:23;;;;;;;10.10;4.53;;;;;;;28.41;53.96;98262.38;5024036;28;20227;-62
2022/05/31 09:45:01;;;;;;;6.85;4.65;;;;;;;28.42;53.90;98248.88;5035360;28;20177;-60
2022/05/31 09:47:28;;;;;;;9.43;4.57;;;;;;;28.31;55.14;98254.88;5045991;28;20193;-61
2022/05/31 09:49:54;;;;;;;12.98;7.00;;;;;;;28.29;55.15;98248.16;5035167;28;20210;-61
2022/05/31 09:52:31;;;;;;;4.88;4.15;;;;;;;28.26;53.65;98254.72;5037753;28;20186;-62
2022/05/31 09:58:20;;;;;;;6.38;4.22;;;;;;;28.36;53.45;98239.06;5029263;28;20224;-60
2022/05/31 10:01:24;;;;;;;8.88;4.60;;;;;;;28.66;51.46;98241.81;5016930;28;20733;-63
2022/05/31 10:03:59;;;;;;;6.70;4.00;;;;;;;28.77;50.92;98247.22;5023687;28;20209;-63
2022/05/31 10:06:30;;;;;;;9.40;4.40;;;;;;;28.95;50.84;98252.56;5046660;28;20199;-63
2022/05/31 10:08:56;;;;;;;5.57;4.00;;;;;;;28.93;49.04;98241.25;5037971;28;20193;-63
2022/05/31 10:11:23;;;;;;;9.65;4.28;;;;;;;28.93;50.65;98238.59;5036550;28;20211;-62
2022/05/31 10:14:01;;;;;;;6.68;4.38;;;;;;;29.03;50.95;98238.09;5036686;28;20185;-62
2022/05/31 10:16:30;;;;;;;5.15;4.68;;;;;;;28.98;51.53;98229.97;5037367;28;20283;-62
2022/05/31 10:18:58;;;;;;;8.82;4.22;;;;;;;29.02;51.73;98231.13;5040061;28;20219;-63
2022/05/31 10:21:31;;;;;;;6.43;4.10;;;;;;;29.10;51.16;98231.63;5037788;28;20281;-63
2022/05/31 10:24:06;;;;;;;8.57;4.20;;;;;;;29.03;48.63;98244.22;5040144;28;20222;-62
2022/05/31 10:26:34;;;;;;;7.82;4.03;;;;;;;29.13;49.65;98247.19;5041548;28;20169;-62
2022/05/31 10:29:06;;;;;;;6.15;4.10;;;;;;;29.14;49.98;98234.69;5029574;28;20198;-61
2022/05/31 10:31:35;;;;;;;9.88;4.05;;;;;;;29.19;49.32;98242.78;5037752;28;20182;-60
2022/05/31 10:34:05;;;;;;;6.00;3.90;;;;;;;29.24;49.37;98243.75;5041710;28;20242;-62
2022/05/31 10:36:51;;;;;;;6.53;4.00;;;;;;;29.33;50.04;98242.38;5037859;28;20181;-62
2022/05/31 10:39:24;;;;;;;8.90;4.05;;;;;;;29.18;50.24;98243.81;5036394;28;20173;-61
2022/05/31 10:41:53;;;;;;;5.78;3.90;;;;;;;29.17;50.10;98245.69;5036450;28;20181;-62
2022/05/31 10:44:38;;;;;;;13.85;4.60;;;;;;;29.08;50.33;98241.72;5038551;28;20181;-60
2022/05/31 10:47:16;;;;;;;5.25;3.78;;;;;;;29.07;49.07;98236.59;5035268;28;20176;-61
2022/05/31 10:49:44;;;;;;;6.47;4.20;;;;;;;28.99;49.71;98229.75;5041044;28;20181;-62
2022/05/31 10:52:41;;;;;;;8.00;4.43;;;;;;;29.05;50.06;98239.50;5040958;28;20192;-60
2022/05/31 10:55:15;;;;;;;10.52;4.40;;;;;;;29.09;50.59;98243.31;5040751;28;20264;-62
2022/05/31 10:57:44;;;;;;;6.65;4.35;;;;;;;29.13;51.99;98241.84;5038250;28;20235;-61
2022/05/31 11:00:35;;;;;;;5.60;3.72;;;;;;;29.17;51.67;98239.53;5034989;28;20188;-61
2022/05/31 11:03:19;;;;;;;7.82;4.32;;;;;;;28.95;50.32;98241.88;5016037;28;20335;-61
2022/05/31 11:06:01;;;;;;;8.25;3.47;;;;;;;28.75;50.43;98241.28;5018917;28;20247;-61
2022/05/31 11:12:09;;;;;;;4.47;3.80;;;;;;;28.93;50.43;98224.47;5041411;28;20183;-61
2022/05/31 11:14:37;;;;;;;5.70;3.30;;;;;;;29.09;50.36;98214.00;5041127;28;20296;-61
2022/05/31 11:17:21;;;;;;;7.70;3.67;;;;;;;29.21;49.14;98217.53;5038589;28;20181;-61
2022/05/31 11:20:05;;;;;;;6.85;3.50;;;;;;;29.26;50.52;98208.88;5034079;28;20181;-62
2022/05/31 11:23:07;;;;;;;6.78;3.15;;;;;;;29.42;48.98;98205.53;5035436;28;20194;-61
2022/05/31 11:26:10;;;;;;;7.68;3.60;;;;;;;29.41;48.87;98198.56;5036742;28;20204;-61
2022/05/31 11:29:12;;;;;;;8.18;3.40;;;;;;;29.50;48.11;98184.66;5043110;28;20246;-62
2022/05/31 11:31:41;;;;;;;7.32;4.18;;;;;;;29.61;47.27;98191.91;5039830;28;20181;-61
2022/05/31 11:35:05;;;;;;;5.95;3.40;;;;;;;29.77;47.21;98188.56;5037934;28;20246;-61
2022/05/31 11:37:56;;;;;;;6.25;3.08;;;;;;;30.00;45.51;98185.06;4978648;28;20191;-62
2022/05/31 11:41:02;;;;;;;7.03;3.25;;;;;;;30.07;44.53;98178.56;4970485;28;20190;-62
2022/05/31 11:43:34;;;;;;;4.93;2.78;;;;;;;30.06;44.69;98168.94;5017646;28;20182;-62
2022/05/31 11:46:02;;;;;;;5.72;3.47;;;;;;;29.91;44.33;98170.47;5016582;28;20213;-62
2022/05/31 11:48:39;;;;;;;3.78;2.55;;;;;;;29.88;43.87;98171.75;5020459;28;20743;-61
2022/05/31 11:51:38;;;;;;;6.45;3.13;;;;;;;29.89;44.41;98173.34;5037797;28;20180;-61
2022/05/31 11:54:31;;;;;;;8.18;3.03;;;;;;;29.82;44.16;98178.00;5036092;28;20655;-61
2022/05/31 11:57:11;;;;;;;6.03;3.10;;;;;;;29.53;44.79;98181.59;5033964;28;20304;-61
2022/05/31 12:00:04;;;;;;;8.07;3.15;;;;;;;29.48;46.36;98180.59;5036027;28;20725;-61
2022/05/31 12:02:39;;;;;;;4.20;3.20;;;;;;;29.55;45.34;98179.50;5039930;28;20230;-61
2022/05/31 12:05:23;;;;;;;5.10;2.88;;;;;;;29.42;45.98;98177.00;5037589;28;20176;-62
2022/05/31 12:07:50;;;;;;;3.75;2.95;;;;;;;29.21;46.80;98192.75;5036200;28;20204;-62
2022/05/31 12:10:18;;;;;;;3.75;3.42;;;;;;;29.18;47.65;98198.50;5036950;28;20181;-61